sensor_id;sensor_type;location;lat;lon;timestamp;P1;durP1;ratioP1;P2;durP2;ratioP2
16015;SDS011;8112;53.592;10.184;2024-03-02T00:00:10;23.40;;;15.20;;
16015;SDS011;8112;53.592;10.184;2024-03-02T00:05:17;22.07;;;15.57;;
16015;SDS011;8112;53.592;10.184;2024-03-02T00:10:21;22.53;;;14.53;;
16015;SDS011;8112;53.592;10.184;2024-03-02T00:15:32;24.27;;;15.97;;
16015;SDS011;8112;53.592;10.184;2024-03-02T00:20:45;30.03;;;18.10;;
16015;SDS011;8112;53.592;10.184;2024-03-02T00:25:48;28.33;;;17.57;;
16015;SDS011;8112;53.592;10.184;2024-03-02T00:30:57;24.73;;;16.67;;
16015;SDS011;8112;53.592;10.184;2024-03-02T00:36:04;25.43;;;16.40;;
16015;SDS011;8112;53.592;10.184;2024-03-02T00:41:07;31.00;;;18.23;;
16015;SDS011;8112;53.592;10.184;2024-03-02T00:46:10;28.93;;;17.67;;
16015;SDS011;8112;53.592;10.184;2024-03-02T00:51:14;28.13;;;17.80;;
16015;SDS011;8112;53.592;10.184;2024-03-02T00:56:16;30.67;;;18.90;;
16015;SDS011;8112;53.592;10.184;2024-03-02T01:01:18;28.37;;;17.07;;
16015;SDS011;8112;53.592;10.184;2024-03-02T01:06:22;27.57;;;17.63;;
16015;SDS011;8112;53.592;10.184;2024-03-02T01:11:24;31.67;;;18.53;;
16015;SDS011;8112;53.592;10.184;2024-03-02T01:16:26;34.13;;;19.17;;
16015;SDS011;8112;53.592;10.184;2024-03-02T01:21:30;32.83;;;19.50;;
16015;SDS011;8112;53.592;10.184;2024-03-02T01:26:32;32.67;;;18.50;;
16015;SDS011;8112;53.592;10.184;2024-03-02T01:31:34;32.37;;;19.40;;
16015;SDS011;8112;53.592;10.184;2024-03-02T01:36:38;30.60;;;18.10;;
16015;SDS011;8112;53.592;10.184;2024-03-02T01:41:40;27.47;;;17.97;;
16015;SDS011;8112;53.592;10.184;2024-03-02T01:46:42;29.23;;;17.00;;
16015;SDS011;8112;53.592;10.184;2024-03-02T01:51:45;27.50;;;17.93;;
16015;SDS011;8112;53.592;10.184;2024-03-02T01:56:48;29.50;;;18.33;;
16015;SDS011;8112;53.592;10.184;2024-03-02T02:01:50;28.97;;;17.47;;
16015;SDS011;8112;53.592;10.184;2024-03-02T02:06:54;25.67;;;16.67;;
16015;SDS011;8112;53.592;10.184;2024-03-02T02:11:56;24.73;;;17.33;;
16015;SDS011;8112;53.592;10.184;2024-03-02T02:16:58;28.23;;;17.23;;
16015;SDS011;8112;53.592;10.184;2024-03-02T02:22:01;25.13;;;16.20;;
16015;SDS011;8112;53.592;10.184;2024-03-02T02:27:03;29.20;;;18.67;;
16015;SDS011;8112;53.592;10.184;2024-03-02T02:32:05;26.20;;;17.30;;
16015;SDS011;8112;53.592;10.184;2024-03-02T02:37:09;31.77;;;18.27;;
16015;SDS011;8112;53.592;10.184;2024-03-02T02:42:11;29.87;;;17.50;;
16015;SDS011;8112;53.592;10.184;2024-03-02T02:47:17;25.47;;;17.33;;
16015;SDS011;8112;53.592;10.184;2024-03-02T02:52:20;26.87;;;17.40;;
16015;SDS011;8112;53.592;10.184;2024-03-02T02:57:22;27.77;;;18.07;;
16015;SDS011;8112;53.592;10.184;2024-03-02T03:02:25;29.10;;;18.00;;
16015;SDS011;8112;53.592;10.184;2024-03-02T03:07:30;31.90;;;19.30;;
16015;SDS011;8112;53.592;10.184;2024-03-02T03:12:32;30.53;;;18.43;;
16015;SDS011;8112;53.592;10.184;2024-03-02T03:17:34;28.03;;;17.47;;
16015;SDS011;8112;53.592;10.184;2024-03-02T03:22:39;31.77;;;19.43;;
16015;SDS011;8112;53.592;10.184;2024-03-02T03:27:42;31.30;;;18.53;;
16015;SDS011;8112;53.592;10.184;2024-03-02T03:32:44;27.97;;;17.93;;
16015;SDS011;8112;53.592;10.184;2024-03-02T03:37:49;29.13;;;18.50;;
16015;SDS011;8112;53.592;10.184;2024-03-02T03:42:51;27.83;;;18.17;;
16015;SDS011;8112;53.592;10.184;2024-03-02T03:47:54;27.77;;;17.73;;
16015;SDS011;8112;53.592;10.184;2024-03-02T03:52:58;27.43;;;18.30;;
16015;SDS011;8112;53.592;10.184;2024-03-02T03:57:59;24.07;;;16.90;;
16015;SDS011;8112;53.592;10.184;2024-03-02T04:03:01;25.53;;;16.97;;
16015;SDS011;8112;53.592;10.184;2024-03-02T04:08:06;29.97;;;17.97;;
16015;SDS011;8112;53.592;10.184;2024-03-02T04:13:08;27.97;;;17.40;;
16015;SDS011;8112;53.592;10.184;2024-03-02T04:18:10;28.73;;;17.60;;
16015;SDS011;8112;53.592;10.184;2024-03-02T04:23:13;28.47;;;17.73;;
16015;SDS011;8112;53.592;10.184;2024-03-02T04:28:17;25.83;;;17.30;;
16015;SDS011;8112;53.592;10.184;2024-03-02T04:33:19;29.07;;;18.63;;
16015;SDS011;8112;53.592;10.184;2024-03-02T04:38:23;28.47;;;17.77;;
16015;SDS011;8112;53.592;10.184;2024-03-02T04:43:25;27.17;;;17.00;;
16015;SDS011;8112;53.592;10.184;2024-03-02T04:48:27;25.07;;;16.40;;
16015;SDS011;8112;53.592;10.184;2024-03-02T04:53:32;24.03;;;15.63;;
16015;SDS011;8112;53.592;10.184;2024-03-02T04:58:34;23.20;;;15.73;;
16015;SDS011;8112;53.592;10.184;2024-03-02T05:03:36;24.60;;;15.97;;
16015;SDS011;8112;53.592;10.184;2024-03-02T05:08:39;22.00;;;15.90;;
16015;SDS011;8112;53.592;10.184;2024-03-02T05:13:42;23.27;;;15.63;;
16015;SDS011;8112;53.592;10.184;2024-03-02T05:18:44;22.03;;;15.50;;
16015;SDS011;8112;53.592;10.184;2024-03-02T05:23:48;25.87;;;16.10;;
16015;SDS011;8112;53.592;10.184;2024-03-02T05:28:50;27.67;;;16.87;;
16015;SDS011;8112;53.592;10.184;2024-03-02T05:33:52;22.70;;;15.37;;
16015;SDS011;8112;53.592;10.184;2024-03-02T05:38:57;24.20;;;17.10;;
16015;SDS011;8112;53.592;10.184;2024-03-02T05:43:59;29.47;;;18.37;;
16015;SDS011;8112;53.592;10.184;2024-03-02T05:49:01;27.47;;;17.63;;
16015;SDS011;8112;53.592;10.184;2024-03-02T05:54:05;25.00;;;16.53;;
16015;SDS011;8112;53.592;10.184;2024-03-02T05:59:07;26.80;;;17.70;;
16015;SDS011;8112;53.592;10.184;2024-03-02T06:04:12;27.13;;;17.10;;
16015;SDS011;8112;53.592;10.184;2024-03-02T06:09:16;26.50;;;17.30;;
16015;SDS011;8112;53.592;10.184;2024-03-02T06:14:20;21.20;;;15.53;;
16015;SDS011;8112;53.592;10.184;2024-03-02T06:19:22;26.30;;;17.43;;
16015;SDS011;8112;53.592;10.184;2024-03-02T06:24:25;26.63;;;16.50;;
16015;SDS011;8112;53.592;10.184;2024-03-02T06:29:27;26.20;;;16.40;;
16015;SDS011;8112;53.592;10.184;2024-03-02T06:34:29;28.50;;;17.77;;
16015;SDS011;8112;53.592;10.184;2024-03-02T06:39:33;27.63;;;17.50;;
16015;SDS011;8112;53.592;10.184;2024-03-02T06:44:36;28.93;;;17.17;;
16015;SDS011;8112;53.592;10.184;2024-03-02T06:49:38;30.30;;;18.93;;
16015;SDS011;8112;53.592;10.184;2024-03-02T06:54:43;26.80;;;18.73;;
16015;SDS011;8112;53.592;10.184;2024-03-02T06:59:46;28.73;;;18.17;;
16015;SDS011;8112;53.592;10.184;2024-03-02T07:04:50;28.23;;;17.83;;
16015;SDS011;8112;53.592;10.184;2024-03-02T07:09:54;26.80;;;18.23;;
16015;SDS011;8112;53.592;10.184;2024-03-02T07:14:55;26.43;;;18.20;;
16015;SDS011;8112;53.592;10.184;2024-03-02T07:20:25;30.73;;;17.73;;
16015;SDS011;8112;53.592;10.184;2024-03-02T07:25:28;28.17;;;19.03;;
16015;SDS011;8112;53.592;10.184;2024-03-02T07:30:31;28.87;;;17.33;;
16015;SDS011;8112;53.592;10.184;2024-03-02T07:35:33;27.10;;;17.83;;
16015;SDS011;8112;53.592;10.184;2024-03-02T07:40:37;26.27;;;16.73;;
16015;SDS011;8112;53.592;10.184;2024-03-02T07:45:40;25.50;;;17.70;;
16015;SDS011;8112;53.592;10.184;2024-03-02T07:50:42;25.43;;;16.47;;
16015;SDS011;8112;53.592;10.184;2024-03-02T07:55:46;28.27;;;18.10;;
16015;SDS011;8112;53.592;10.184;2024-03-02T08:00:48;24.73;;;16.40;;
16015;SDS011;8112;53.592;10.184;2024-03-02T08:05:50;24.60;;;16.70;;
16015;SDS011;8112;53.592;10.184;2024-03-02T08:10:53;27.60;;;18.43;;
16015;SDS011;8112;53.592;10.184;2024-03-02T08:15:55;25.60;;;16.43;;
16015;SDS011;8112;53.592;10.184;2024-03-02T08:20:57;26.40;;;16.20;;
16015;SDS011;8112;53.592;10.184;2024-03-02T08:26:01;19.70;;;14.60;;
16015;SDS011;8112;53.592;10.184;2024-03-02T08:31:03;27.60;;;15.37;;
16015;SDS011;8112;53.592;10.184;2024-03-02T08:36:05;21.43;;;15.33;;
16015;SDS011;8112;53.592;10.184;2024-03-02T08:41:11;23.17;;;14.73;;
16015;SDS011;8112;53.592;10.184;2024-03-02T08:46:16;22.07;;;14.53;;
16015;SDS011;8112;53.592;10.184;2024-03-02T08:51:18;19.37;;;14.03;;
16015;SDS011;8112;53.592;10.184;2024-03-02T08:56:21;20.80;;;14.23;;
16015;SDS011;8112;53.592;10.184;2024-03-02T09:01:23;22.20;;;13.93;;
16015;SDS011;8112;53.592;10.184;2024-03-02T09:06:25;22.33;;;14.20;;
16015;SDS011;8112;53.592;10.184;2024-03-02T09:11:31;21.20;;;13.87;;
16015;SDS011;8112;53.592;10.184;2024-03-02T09:16:34;19.67;;;13.50;;
16015;SDS011;8112;53.592;10.184;2024-03-02T09:21:36;19.80;;;14.33;;
16015;SDS011;8112;53.592;10.184;2024-03-02T09:26:41;18.50;;;13.00;;
16015;SDS011;8112;53.592;10.184;2024-03-02T09:31:43;22.60;;;12.50;;
16015;SDS011;8112;53.592;10.184;2024-03-02T09:36:45;21.20;;;12.90;;
16015;SDS011;8112;53.592;10.184;2024-03-02T09:41:49;20.07;;;13.13;;
16015;SDS011;8112;53.592;10.184;2024-03-02T09:46:50;19.53;;;12.90;;
16015;SDS011;8112;53.592;10.184;2024-03-02T09:51:52;18.37;;;13.27;;
16015;SDS011;8112;53.592;10.184;2024-03-02T09:56:57;19.07;;;13.63;;
16015;SDS011;8112;53.592;10.184;2024-03-02T10:01:59;19.17;;;12.67;;
16015;SDS011;8112;53.592;10.184;2024-03-02T10:07:13;18.53;;;13.23;;
16015;SDS011;8112;53.592;10.184;2024-03-02T10:12:17;17.93;;;12.60;;
16015;SDS011;8112;53.592;10.184;2024-03-02T10:17:19;17.23;;;11.40;;
16015;SDS011;8112;53.592;10.184;2024-03-02T10:22:22;17.30;;;11.33;;
16015;SDS011;8112;53.592;10.184;2024-03-02T10:27:27;14.90;;;10.73;;
16015;SDS011;8112;53.592;10.184;2024-03-02T10:32:30;14.03;;;10.00;;
16015;SDS011;8112;53.592;10.184;2024-03-02T10:37:32;13.30;;;9.90;;
16015;SDS011;8112;53.592;10.184;2024-03-02T10:42:36;16.37;;;10.40;;
16015;SDS011;8112;53.592;10.184;2024-03-02T10:47:39;12.83;;;9.50;;
16015;SDS011;8112;53.592;10.184;2024-03-02T10:52:43;15.07;;;9.70;;
16015;SDS011;8112;53.592;10.184;2024-03-02T10:57:49;13.53;;;9.70;;
16015;SDS011;8112;53.592;10.184;2024-03-02T11:02:55;13.67;;;9.80;;
16015;SDS011;8112;53.592;10.184;2024-03-02T11:08:01;13.70;;;10.03;;
16015;SDS011;8112;53.592;10.184;2024-03-02T11:13:07;14.03;;;10.30;;
16015;SDS011;8112;53.592;10.184;2024-03-02T11:18:10;13.87;;;9.60;;
16015;SDS011;8112;53.592;10.184;2024-03-02T11:23:14;12.50;;;9.63;;
16015;SDS011;8112;53.592;10.184;2024-03-02T11:28:20;11.17;;;8.17;;
16015;SDS011;8112;53.592;10.184;2024-03-02T11:33:37;13.70;;;8.23;;
16015;SDS011;8112;53.592;10.184;2024-03-02T11:38:39;12.63;;;8.67;;
16015;SDS011;8112;53.592;10.184;2024-03-02T11:43:47;10.90;;;7.77;;
16015;SDS011;8112;53.592;10.184;2024-03-02T11:48:50;8.70;;;6.90;;
16015;SDS011;8112;53.592;10.184;2024-03-02T11:53:53;10.23;;;7.50;;
16015;SDS011;8112;53.592;10.184;2024-03-02T11:58:58;10.77;;;7.20;;
16015;SDS011;8112;53.592;10.184;2024-03-02T12:04:01;9.33;;;7.27;;
16015;SDS011;8112;53.592;10.184;2024-03-02T12:09:05;10.03;;;7.13;;
16015;SDS011;8112;53.592;10.184;2024-03-02T12:14:13;10.67;;;8.00;;
16015;SDS011;8112;53.592;10.184;2024-03-02T12:19:14;11.93;;;8.83;;
16015;SDS011;8112;53.592;10.184;2024-03-02T12:24:17;10.53;;;8.00;;
16015;SDS011;8112;53.592;10.184;2024-03-02T12:29:21;10.37;;;7.37;;
16015;SDS011;8112;53.592;10.184;2024-03-02T12:34:24;10.23;;;8.00;;
16015;SDS011;8112;53.592;10.184;2024-03-02T12:39:26;14.70;;;8.80;;
16015;SDS011;8112;53.592;10.184;2024-03-02T13:47:05;10.47;;;7.53;;
16015;SDS011;8112;53.592;10.184;2024-03-02T13:52:06;9.80;;;7.40;;
16015;SDS011;8112;53.592;10.184;2024-03-02T13:57:13;10.97;;;7.37;;
16015;SDS011;8112;53.592;10.184;2024-03-02T14:02:16;9.63;;;7.03;;
16015;SDS011;8112;53.592;10.184;2024-03-02T14:07:18;10.43;;;7.20;;
16015;SDS011;8112;53.592;10.184;2024-03-02T14:12:20;9.97;;;7.10;;
16015;SDS011;8112;53.592;10.184;2024-03-02T14:17:24;10.17;;;7.90;;
16015;SDS011;8112;53.592;10.184;2024-03-02T14:22:25;11.47;;;7.40;;
16015;SDS011;8112;53.592;10.184;2024-03-02T14:27:27;9.50;;;7.37;;
16015;SDS011;8112;53.592;10.184;2024-03-02T14:32:30;14.37;;;7.97;;
16015;SDS011;8112;53.592;10.184;2024-03-02T14:37:32;13.47;;;7.70;;
16015;SDS011;8112;53.592;10.184;2024-03-02T14:42:34;10.03;;;8.03;;
16015;SDS011;8112;53.592;10.184;2024-03-02T14:47:37;8.90;;;7.10;;
16015;SDS011;8112;53.592;10.184;2024-03-02T14:52:38;12.07;;;7.93;;
16015;SDS011;8112;53.592;10.184;2024-03-02T14:57:40;8.80;;;7.30;;
16015;SDS011;8112;53.592;10.184;2024-03-02T15:02:43;9.57;;;7.40;;
16015;SDS011;8112;53.592;10.184;2024-03-02T15:07:45;8.70;;;6.40;;
16015;SDS011;8112;53.592;10.184;2024-03-02T15:12:47;9.13;;;7.03;;
16015;SDS011;8112;53.592;10.184;2024-03-02T15:17:50;12.07;;;7.17;;
16015;SDS011;8112;53.592;10.184;2024-03-02T15:22:52;9.90;;;7.10;;
16015;SDS011;8112;53.592;10.184;2024-03-02T15:27:54;10.93;;;7.87;;
16015;SDS011;8112;53.592;10.184;2024-03-02T15:32:57;11.30;;;7.40;;
16015;SDS011;8112;53.592;10.184;2024-03-02T15:37:58;10.90;;;7.53;;
16015;SDS011;8112;53.592;10.184;2024-03-02T15:43:00;10.07;;;7.57;;
16015;SDS011;8112;53.592;10.184;2024-03-02T15:48:03;9.00;;;6.93;;
16015;SDS011;8112;53.592;10.184;2024-03-02T15:53:05;9.23;;;6.87;;
16015;SDS011;8112;53.592;10.184;2024-03-02T15:58:07;9.90;;;6.77;;
16015;SDS011;8112;53.592;10.184;2024-03-02T16:03:10;9.50;;;7.37;;
16015;SDS011;8112;53.592;10.184;2024-03-02T16:08:12;8.87;;;6.97;;
16015;SDS011;8112;53.592;10.184;2024-03-02T16:13:14;9.87;;;7.57;;
16015;SDS011;8112;53.592;10.184;2024-03-02T16:18:17;12.53;;;7.80;;
16015;SDS011;8112;53.592;10.184;2024-03-02T16:23:18;10.87;;;7.53;;
16015;SDS011;8112;53.592;10.184;2024-03-02T16:28:20;11.83;;;8.63;;
16015;SDS011;8112;53.592;10.184;2024-03-02T16:33:23;10.93;;;7.10;;
16015;SDS011;8112;53.592;10.184;2024-03-02T16:38:25;11.03;;;7.93;;
16015;SDS011;8112;53.592;10.184;2024-03-02T16:43:27;11.00;;;8.23;;
16015;SDS011;8112;53.592;10.184;2024-03-02T16:48:30;10.97;;;8.03;;
16015;SDS011;8112;53.592;10.184;2024-03-02T16:53:33;9.37;;;6.97;;
16015;SDS011;8112;53.592;10.184;2024-03-02T16:58:35;11.27;;;7.60;;
16015;SDS011;8112;53.592;10.184;2024-03-02T17:03:39;9.60;;;6.97;;
16015;SDS011;8112;53.592;10.184;2024-03-02T17:08:41;11.07;;;7.60;;
16015;SDS011;8112;53.592;10.184;2024-03-02T17:13:42;10.43;;;7.20;;
16015;SDS011;8112;53.592;10.184;2024-03-02T17:18:45;11.23;;;7.47;;
16015;SDS011;8112;53.592;10.184;2024-03-02T17:23:47;11.80;;;6.93;;
16015;SDS011;8112;53.592;10.184;2024-03-02T17:28:49;8.80;;;6.87;;
16015;SDS011;8112;53.592;10.184;2024-03-02T17:33:52;10.63;;;7.83;;
16015;SDS011;8112;53.592;10.184;2024-03-02T17:38:53;13.20;;;8.17;;
16015;SDS011;8112;53.592;10.184;2024-03-02T17:43:55;13.43;;;9.17;;
16015;SDS011;8112;53.592;10.184;2024-03-02T17:48:58;12.37;;;8.83;;
16015;SDS011;8112;53.592;10.184;2024-03-02T17:54:00;10.43;;;8.30;;
16015;SDS011;8112;53.592;10.184;2024-03-02T17:59:02;12.20;;;8.80;;
16015;SDS011;8112;53.592;10.184;2024-03-02T18:04:05;11.30;;;9.23;;
16015;SDS011;8112;53.592;10.184;2024-03-02T18:09:07;11.23;;;9.13;;
16015;SDS011;8112;53.592;10.184;2024-03-02T18:14:08;12.20;;;9.03;;
16015;SDS011;8112;53.592;10.184;2024-03-02T18:19:11;13.07;;;9.67;;
16015;SDS011;8112;53.592;10.184;2024-03-02T18:24:13;15.20;;;10.70;;
16015;SDS011;8112;53.592;10.184;2024-03-02T18:29:15;15.03;;;10.63;;
16015;SDS011;8112;53.592;10.184;2024-03-02T18:34:18;13.63;;;10.40;;
16015;SDS011;8112;53.592;10.184;2024-03-02T18:39:20;16.37;;;11.83;;
16015;SDS011;8112;53.592;10.184;2024-03-02T18:44:22;18.67;;;11.50;;
16015;SDS011;8112;53.592;10.184;2024-03-02T18:49:25;20.03;;;12.87;;
16015;SDS011;8112;53.592;10.184;2024-03-02T18:54:28;21.67;;;12.87;;
16015;SDS011;8112;53.592;10.184;2024-03-02T18:59:29;22.43;;;14.60;;
16015;SDS011;8112;53.592;10.184;2024-03-02T19:04:32;22.67;;;14.50;;
16015;SDS011;8112;53.592;10.184;2024-03-02T19:09:34;17.97;;;13.23;;
16015;SDS011;8112;53.592;10.184;2024-03-02T19:14:36;20.60;;;13.80;;
16015;SDS011;8112;53.592;10.184;2024-03-02T19:19:39;19.53;;;13.70;;
16015;SDS011;8112;53.592;10.184;2024-03-02T19:24:40;20.47;;;12.57;;
16015;SDS011;8112;53.592;10.184;2024-03-02T19:29:42;19.73;;;13.23;;
16015;SDS011;8112;53.592;10.184;2024-03-02T19:34:46;22.57;;;13.60;;
16015;SDS011;8112;53.592;10.184;2024-03-02T19:39:48;19.70;;;14.37;;
16015;SDS011;8112;53.592;10.184;2024-03-02T19:44:49;19.67;;;13.77;;
16015;SDS011;8112;53.592;10.184;2024-03-02T19:49:52;20.13;;;14.33;;
16015;SDS011;8112;53.592;10.184;2024-03-02T19:54:54;19.30;;;13.87;;
16015;SDS011;8112;53.592;10.184;2024-03-02T19:59:56;18.00;;;13.30;;
16015;SDS011;8112;53.592;10.184;2024-03-02T20:04:59;19.97;;;14.43;;
16015;SDS011;8112;53.592;10.184;2024-03-02T20:10:01;22.57;;;15.37;;
16015;SDS011;8112;53.592;10.184;2024-03-02T20:15:07;20.47;;;13.93;;
16015;SDS011;8112;53.592;10.184;2024-03-02T20:20:13;22.07;;;14.43;;
16015;SDS011;8112;53.592;10.184;2024-03-02T20:25:15;18.97;;;13.37;;
16015;SDS011;8112;53.592;10.184;2024-03-02T20:30:17;19.30;;;13.57;;
16015;SDS011;8112;53.592;10.184;2024-03-02T20:35:20;19.77;;;12.90;;
16015;SDS011;8112;53.592;10.184;2024-03-02T20:40:22;16.67;;;12.33;;
16015;SDS011;8112;53.592;10.184;2024-03-02T20:45:23;17.63;;;12.60;;
16015;SDS011;8112;53.592;10.184;2024-03-02T20:50:26;22.00;;;14.00;;
16015;SDS011;8112;53.592;10.184;2024-03-02T20:55:28;22.90;;;14.40;;
16015;SDS011;8112;53.592;10.184;2024-03-02T21:00:30;19.30;;;12.60;;
16015;SDS011;8112;53.592;10.184;2024-03-02T21:05:33;16.97;;;11.53;;
16015;SDS011;8112;53.592;10.184;2024-03-02T21:10:34;15.47;;;11.43;;
16015;SDS011;8112;53.592;10.184;2024-03-02T21:15:36;17.13;;;11.63;;
16015;SDS011;8112;53.592;10.184;2024-03-02T21:20:39;17.97;;;12.13;;
16015;SDS011;8112;53.592;10.184;2024-03-02T21:25:41;16.23;;;11.60;;
16015;SDS011;8112;53.592;10.184;2024-03-02T21:30:43;16.57;;;11.37;;
16015;SDS011;8112;53.592;10.184;2024-03-02T21:35:46;20.73;;;12.17;;
16015;SDS011;8112;53.592;10.184;2024-03-02T21:40:47;14.63;;;11.03;;
16015;SDS011;8112;53.592;10.184;2024-03-02T21:45:49;16.03;;;11.57;;
16015;SDS011;8112;53.592;10.184;2024-03-02T21:50:53;14.57;;;10.40;;
16015;SDS011;8112;53.592;10.184;2024-03-02T21:55:54;15.63;;;11.77;;
16015;SDS011;8112;53.592;10.184;2024-03-02T22:00:56;17.13;;;12.03;;
16015;SDS011;8112;53.592;10.184;2024-03-02T22:05:59;19.13;;;12.80;;
16015;SDS011;8112;53.592;10.184;2024-03-02T22:11:01;16.80;;;12.10;;
16015;SDS011;8112;53.592;10.184;2024-03-02T22:16:03;18.63;;;12.60;;
16015;SDS011;8112;53.592;10.184;2024-03-02T22:21:06;17.97;;;13.37;;
16015;SDS011;8112;53.592;10.184;2024-03-02T22:26:08;19.97;;;13.93;;
16015;SDS011;8112;53.592;10.184;2024-03-02T22:31:10;18.50;;;12.80;;
16015;SDS011;8112;53.592;10.184;2024-03-02T22:36:13;16.20;;;11.83;;
16015;SDS011;8112;53.592;10.184;2024-03-02T22:41:14;17.17;;;13.30;;
16015;SDS011;8112;53.592;10.184;2024-03-02T22:46:16;19.40;;;13.27;;
16015;SDS011;8112;53.592;10.184;2024-03-02T22:51:22;19.43;;;13.10;;
16015;SDS011;8112;53.592;10.184;2024-03-02T22:56:25;18.30;;;12.60;;
16015;SDS011;8112;53.592;10.184;2024-03-02T23:01:27;22.67;;;14.27;;
16015;SDS011;8112;53.592;10.184;2024-03-02T23:06:30;20.87;;;14.37;;
16015;SDS011;8112;53.592;10.184;2024-03-02T23:11:32;22.07;;;14.10;;
16015;SDS011;8112;53.592;10.184;2024-03-02T23:16:35;19.30;;;13.37;;
16015;SDS011;8112;53.592;10.184;2024-03-02T23:21:40;20.90;;;14.47;;
16015;SDS011;8112;53.592;10.184;2024-03-02T23:26:42;20.33;;;13.97;;
16015;SDS011;8112;53.592;10.184;2024-03-02T23:31:44;21.17;;;14.07;;
16015;SDS011;8112;53.592;10.184;2024-03-02T23:36:47;21.03;;;14.37;;
16015;SDS011;8112;53.592;10.184;2024-03-02T23:41:48;21.77;;;13.90;;
16015;SDS011;8112;53.592;10.184;2024-03-02T23:46:50;20.30;;;13.97;;
16015;SDS011;8112;53.592;10.184;2024-03-02T23:51:53;22.00;;;14.33;;
16015;SDS011;8112;53.592;10.184;2024-03-02T23:56:55;22.50;;;14.03;;
